Destinations Visby Airport

Visby Airport (ESSV / VBY)

Flights to Visby Airport

Flight number From ETE Dispatch
SPY-322 EHGG Groningen Airport Eelde 01:50

Flights from Visby Airport

Flight number To ETE Dispatch
SPY-323 EHGG Groningen Airport Eelde 02:05
About

Visby Airport facts

Visby Airport is located in Visby at an elevation of 50.0 meters or 164 feet.

Currently, Speedy Airlines serves 2 flights to and from Visby Airport.

Detailed airport info

Route map

Weather

Current weather

METAR

METAR

Metar data retrieved Sunday, 21 July 2024 at 18:25 UTC

ESSV 211750Z 11007KT CAVOK 20/16 Q1012
Wind Temperature
7 kt 20c